Terminal Aerodrome Forecast
Issued by NWS Des Moines, IA

Home | Current Version | Previous Version | Text Only | Print | Product List | Glossary On
Versions: 1 2 3 4 5 6 7 8 9 10 11 12 13 14 15 16 17 18 19 20 21 22 23 24 25 26 27 28 29 30 31 32 33 34 35 36 37 38 39 40 41 42 43
000
FTUS43 KDMX 150134 AAB
TAFDSM
TAF AMD
KDSM 150134Z 1502/1524 24007KT P6SM BKN035
     FM151500 26011KT P6SM FEW050 BKN140
     FM151900 25010G19KT P6SM BKN200
     FM152100 25010G19KT P6SM SCT240
     FM152300 23007KT P6SM SCT220=

USA.gov is the U.S. government's official web portal to all federal, state and local government web resources and services.